Time;durP1;ratioP1;P1;durP2;ratioP2;P2;SDS_P1;SDS_P2;PMS_P1;PMS_P2;Temp;Humidity;BMP_temperature;BMP_pressure;BME280_temperature;BME280_humidity;BME280_pressure;Samples;Min_cycle;Max_cycle;Signal;HPM_P1;HPM_P2
2022/08/11 00:00:32;;;;;;;;;;;;;;;;;;5046715;28;19915;-71
2022/08/11 00:02:58;;;;;;;;;;;;;;;;;;5049604;28;19951;-72
2022/08/11 00:05:24;;;;;;;;;;;;;;;;;;5032186;28;19917;-75
2022/08/11 00:07:50;;;;;;;;;;;;;;;;;;5044609;28;19975;-71
2022/08/11 00:10:16;;;;;;;;;;;;;;;;;;5046052;28;19947;-71
2022/08/11 00:12:42;;;;;;;;;;;;;;;;;;5057378;28;19909;-71
2022/08/11 00:15:08;;;;;;;;;;;;;;;;;;5052345;28;19909;-72
2022/08/11 00:17:34;;;;;;;;;;;;;;;;;;5056412;28;19920;-80
2022/08/11 00:20:00;;;;;;;;;;;;;;;;;;5051950;28;19909;-73
2022/08/11 00:22:27;;;;;;;;;;;;;;;;;;5056372;28;20376;-71
2022/08/11 00:24:53;;;;;;;;;;;;;;;;;;5058387;28;19981;-71
2022/08/11 00:27:19;;;;;;;;;;;;;;;;;;5028604;28;20372;-72
2022/08/11 00:29:44;;;;;;;;;;;;;;;;;;5051478;28;20217;-71
2022/08/11 00:32:11;;;;;;;;;;;;;;;;;;5048207;28;20288;-73
2022/08/11 00:34:37;;;;;;;;;;;;;;;;;;5053845;28;19909;-74
2022/08/11 00:37:03;;;;;;;;;;;;;;;;;;5053282;28;19916;-71
2022/08/11 00:39:29;;;;;;;;;;;;;;;;;;5047180;28;19940;-74
2022/08/11 00:41:55;;;;;;;;;;;;;;;;;;5054254;28;19909;-71
2022/08/11 00:44:21;;;;;;;;;;;;;;;;;;5040870;28;20381;-71
2022/08/11 00:46:47;;;;;;;;;;;;;;;;;;5054409;28;19913;-71
2022/08/11 00:49:13;;;;;;;;;;;;;;;;;;5049039;28;19962;-71
2022/08/11 00:51:39;;;;;;;;;;;;;;;;;;5054303;28;19911;-72
2022/08/11 00:54:05;;;;;;;;;;;;;;;;;;5046562;28;19959;-71
2022/08/11 00:56:31;;;;;;;;;;;;;;;;;;5052977;28;19921;-71
2022/08/11 00:58:57;;;;;;;;;;;;;;;;;;5031642;28;19956;-71
2022/08/11 01:01:26;;;;;;;;;;;;;;;;;;5052740;28;20306;-71
2022/08/11 01:03:51;;;;;;;;;;;;;;;;;;5052373;28;19913;-71
2022/08/11 01:06:17;;;;;;;;;;;;;;;;;;5043820;28;20265;-71
2022/08/11 01:08:43;;;;;;;;;;;;;;;;;;5039514;28;20349;-71
2022/08/11 01:11:09;;;;;;;;;;;;;;;;;;5057461;28;19978;-71
2022/08/11 01:13:35;;;;;;;;;;;;;;;;;;5038735;28;19976;-71
2022/08/11 01:16:01;;;;;;;;;;;;;;;;;;5049561;28;19908;-74
2022/08/11 01:18:27;;;;;;;;;;;;;;;;;;5049765;28;19953;-71
2022/08/11 01:20:53;;;;;;;;;;;;;;;;;;5045602;28;19952;-74
2022/08/11 01:23:19;;;;;;;;;;;;;;;;;;5050605;28;19905;-71
2022/08/11 01:25:45;;;;;;;;;;;;;;;;;;5050183;28;20011;-71
2022/08/11 01:28:11;;;;;;;;;;;;;;;;;;5033812;28;19955;-79
2022/08/11 01:30:38;;;;;;;;;;;;;;;;;;5046696;28;19948;-71
2022/08/11 01:33:04;;;;;;;;;;;;;;;;;;5058422;28;19931;-73
2022/08/11 01:35:29;;;;;;;;;;;;;;;;;;5049942;28;19973;-71
2022/08/11 01:37:55;;;;;;;;;;;;;;;;;;5042453;28;19916;-71
2022/08/11 01:40:22;;;;;;;;;;;;;;;;;;5043952;28;19943;-71
2022/08/11 01:45:34;;;;;;;;;;;;;;;;;;5044644;28;19966;-74
2022/08/11 01:48:00;;;;;;;;;;;;;;;;;;5053030;28;19913;-76
2022/08/11 01:50:26;;;;;;;;;;;;;;;;;;5043610;28;19912;-69
2022/08/11 01:52:53;;;;;;;;;;;;;;;;;;5031447;28;19955;-69
2022/08/11 01:55:20;;;;;;;;;;;;;;;;;;5022400;28;19927;-70
2022/08/11 01:57:46;;;;;;;;;;;;;;;;;;5043721;28;20012;-69
2022/08/11 02:00:12;;;;;;;;;;;;;;;;;;5039657;28;20015;-69
2022/08/11 02:02:48;;;;;;;;;;;;;;;;;;5051443;28;19917;-71
2022/08/11 02:05:14;;;;;;;;;;;;;;;;;;5042712;28;19913;-70
2022/08/11 02:07:40;;;;;;;;;;;;;;;;;;5036129;28;19959;-73
2022/08/11 02:11:29;;;;;;;;;;;;;;;;;;5047860;28;19982;-71
2022/08/11 02:12:52;;;;;;;;;;;;;;;;;;5052755;28;19904;-72
2022/08/11 02:15:18;;;;;;;;;;;;;;;;;;5046672;28;20027;-75
2022/08/11 02:17:44;;;;;;;;;;;;;;;;;;5049685;28;19974;-72
2022/08/11 02:25:40;;;;;;;;;;;;;;;;;;5040124;28;19935;-72
2022/08/11 02:28:07;;;;;;;;;;;;;;;;;;5047816;28;20292;-71
2022/08/11 02:30:33;;;;;;;;;;;;;;;;;;5051950;28;19908;-71
2022/08/11 02:35:44;;;;;;;;;;;;;;;;;;5043466;28;19994;-75
2022/08/11 02:38:11;;;;;;;;;;;;;;;;;;5047839;28;19912;-74
2022/08/11 02:40:36;;;;;;;;;;;;;;;;;;5039907;28;19912;-71
2022/08/11 02:43:02;;;;;;;;;;;;;;;;;;5049426;28;19954;-71
2022/08/11 02:45:28;;;;;;;;;;;;;;;;;;5049001;28;19974;-71
2022/08/11 02:50:39;;;;;;;;;;;;;;;;;;5047739;28;19919;-70
2022/08/11 02:53:05;;;;;;;;;;;;;;;;;;5051363;28;19916;-76
2022/08/11 02:55:31;;;;;;;;;;;;;;;;;;5040449;28;19947;-70
2022/08/11 02:57:57;;;;;;;;;;;;;;;;;;5050597;28;19908;-71
2022/08/11 03:00:23;;;;;;;;;;;;;;;;;;5039218;28;20604;-71
2022/08/11 03:02:49;;;;;;;;;;;;;;;;;;5049106;28;19912;-72
2022/08/11 03:05:19;;;;;;;;;;;;;;;;;;5039797;28;19949;-75
2022/08/11 03:07:45;;;;;;;;;;;;;;;;;;5049631;28;20007;-71
2022/08/11 03:10:11;;;;;;;;;;;;;;;;;;5042678;28;20361;-71
2022/08/11 03:18:07;;;;;;;;;;;;;;;;;;5047350;28;19955;-71
2022/08/11 03:20:33;;;;;;;;;;;;;;;;;;5043296;28;19956;-72
2022/08/11 03:23:00;;;;;;;;;;;;;;;;;;5049558;28;19944;-77
2022/08/11 03:25:30;;;;;;;;;;;;;;;;;;5042054;28;20384;-71
2022/08/11 03:27:56;;;;;;;;;;;;;;;;;;5050607;28;19916;-71
2022/08/11 03:30:22;;;;;;;;;;;;;;;;;;5030646;28;19936;-71
2022/08/11 03:34:00;;;;;;;;;;;;;;;;;;5047542;28;19916;-76
2022/08/11 03:35:34;;;;;;;;;;;;;;;;;;5042335;28;19919;-71
2022/08/11 03:38:00;;;;;;;;;;;;;;;;;;5049262;28;20364;-71
2022/08/11 03:43:11;;;;;;;;;;;;;;;;;;5044637;28;19920;-73
2022/08/11 03:45:37;;;;;;;;;;;;;;;;;;5047958;28;19983;-71
2022/08/11 03:48:03;;;;;;;;;;;;;;;;;;5048385;28;19966;-74
2022/08/11 03:50:29;;;;;;;;;;;;;;;;;;5035356;28;19919;-71
2022/08/11 03:52:55;;;;;;;;;;;;;;;;;;5050517;28;19912;-71
2022/08/11 03:55:21;;;;;;;;;;;;;;;;;;5052908;28;19944;-72
2022/08/11 03:57:47;;;;;;;;;;;;;;;;;;5051629;28;19998;-71
2022/08/11 04:00:13;;;;;;;;;;;;;;;;;;5051194;28;19948;-71
2022/08/11 04:02:39;;;;;;;;;;;;;;;;;;5048544;28;20689;-71
2022/08/11 04:05:06;;;;;;;;;;;;;;;;;;5054001;28;20351;-73
2022/08/11 04:07:32;;;;;;;;;;;;;;;;;;5032379;28;19915;-71
2022/08/11 04:09:58;;;;;;;;;;;;;;;;;;5048868;28;20273;-72
2022/08/11 04:12:24;;;;;;;;;;;;;;;;;;5041579;28;19955;-71
2022/08/11 04:17:34;;;;;;;;;;;;;;;;;;5061736;28;20022;-71
2022/08/11 04:20:00;;;;;;;;;;;;;;;;;;5036389;28;20000;-72
2022/08/11 04:22:26;;;;;;;;;;;;;;;;;;5035134;28;19908;-71
2022/08/11 04:24:52;;;;;;;;;;;;;;;;;;5044659;28;19995;-75
2022/08/11 04:27:18;;;;;;;;;;;;;;;;;;5040591;28;20343;-72
2022/08/11 04:29:44;;;;;;;;;;;;;;;;;;5051074;28;19960;-72
2022/08/11 04:32:10;;;;;;;;;;;;;;;;;;5055779;28;19916;-71
2022/08/11 04:34:36;;;;;;;;;;;;;;;;;;5044737;28;19909;-71
2022/08/11 04:39:48;;;;;;;;;;;;;;;;;;5039821;28;19923;-77
2022/08/11 04:44:59;;;;;;;;;;;;;;;;;;5048507;28;19938;-74
2022/08/11 05:03:54;;;;;;;;;;;;;;;;;;5057242;28;20005;-72
2022/08/11 05:06:20;;;;;;;;;;;;;;;;;;5052194;28;19955;-72
2022/08/11 05:08:46;;;;;;;;;;;;;;;;;;5043096;28;20273;-75
2022/08/11 05:11:12;;;;;;;;;;;;;;;;;;5052608;28;19948;-71
2022/08/11 05:35:36;;;;;;;;;;;;;;;;;;5048632;28;19915;-71
2022/08/11 05:57:15;;;;;;;;;;;;;;;;;;5051012;28;19916;-74
2022/08/11 05:59:41;;;;;;;;;;;;;;;;;;5055699;28;19953;-74
2022/08/11 06:02:07;;;;;;;;;;;;;;;;;;5052969;28;19919;-74
2022/08/11 06:04:33;;;;;;;;;;;;;;;;;;5027291;28;19992;-74
2022/08/11 06:06:59;;;;;;;;;;;;;;;;;;5052454;28;19913;-84
2022/08/11 06:09:25;;;;;;;;;;;;;;;;;;5039156;28;19909;-85
2022/08/11 06:11:51;;;;;;;;;;;;;;;;;;5049187;28;19927;-84
2022/08/11 06:14:17;;;;;;;;;;;;;;;;;;5059153;28;19909;-83
2022/08/11 06:16:43;;;;;;;;;;;;;;;;;;5056356;28;19928;-81
2022/08/11 06:19:09;;;;;;;;;;;;;;;;;;5053828;28;20287;-82
2022/08/11 06:21:35;;;;;;;;;;;;;;;;;;5056157;28;19952;-82
2022/08/11 06:24:01;;;;;;;;;;;;;;;;;;5050833;28;20292;-81
2022/08/11 06:26:27;;;;;;;;;;;;;;;;;;5045229;28;20199;-81
2022/08/11 06:28:53;;;;;;;;;;;;;;;;;;5051610;28;19909;-81
2022/08/11 06:31:19;;;;;;;;;;;;;;;;;;5044456;28;19909;-83
2022/08/11 06:33:45;;;;;;;;;;;;;;;;;;5046790;28;19920;-85
2022/08/11 06:36:11;;;;;;;;;;;;;;;;;;5032112;28;19923;-82
2022/08/11 06:38:37;;;;;;;;;;;;;;;;;;5052353;28;19909;-81
2022/08/11 06:43:48;;;;;;;;;;;;;;;;;;5060599;28;19920;-82
2022/08/11 06:46:14;;;;;;;;;;;;;;;;;;5067988;28;20311;-82
2022/08/11 06:48:40;;;;;;;;;;;;;;;;;;5049499;28;20628;-79
2022/08/11 06:51:12;;;;;;;;;;;;;;;;;;5051858;28;20482;-81
2022/08/11 06:53:38;;;;;;;;;;;;;;;;;;5055286;28;19972;-79
2022/08/11 07:01:33;;;;;;;;;;;;;;;;;;5045013;28;19995;-79
2022/08/11 07:03:59;;;;;;;;;;;;;;;;;;5043144;28;19920;-81
2022/08/11 07:06:27;;;;;;;;;;;;;;;;;;5042271;28;19999;-84
2022/08/11 07:16:58;;;;;;;;;;;;;;;;;;5051040;28;19971;-82
2022/08/11 07:30:22;;;;;;;;;;;;;;;;;;5070090;28;19920;-81
2022/08/11 07:32:49;;;;;;;;;;;;;;;;;;5038739;28;19916;-81
2022/08/11 07:35:14;;;;;;;;;;;;;;;;;;5063893;28;19905;-78
2022/08/11 07:37:40;;;;;;;;;;;;;;;;;;5048789;28;20353;-77
2022/08/11 07:40:06;;;;;;;;;;;;;;;;;;5044227;28;20503;-77
2022/08/11 07:42:35;;;;;;;;;;;;;;;;;;5043427;28;20348;-79
2022/08/11 07:53:15;;;;;;;;;;;;;;;;;;5040351;28;20043;-78
2022/08/11 07:55:41;;;;;;;;;;;;;;;;;;5051226;28;19983;-77
2022/08/11 08:20:06;;;;;;;;;;;;;;;;;;5035600;28;20155;-74
2022/08/11 08:22:32;;;;;;;;;;;;;;;;;;5051839;28;19970;-73
2022/08/11 08:24:58;;;;;;;;;;;;;;;;;;5024545;28;20037;-74
2022/08/11 08:27:24;;;;;;;;;;;;;;;;;;5041177;28;19909;-73
2022/08/11 08:32:56;;;;;;;;;;;;;;;;;;4995941;28;19957;-73
2022/08/11 08:35:23;;;;;;;;;;;;;;;;;;4998467;28;19918;-73
2022/08/11 08:37:50;;;;;;;;;;;;;;;;;;5017827;28;19912;-72
2022/08/11 08:40:16;;;;;;;;;;;;;;;;;;5054581;28;20011;-72
2022/08/11 08:42:42;;;;;;;;;;;;;;;;;;5045120;28;20370;-72
2022/08/11 08:45:08;;;;;;;;;;;;;;;;;;5051672;28;20010;-72
2022/08/11 08:47:34;;;;;;;;;;;;;;;;;;5054167;28;19950;-73
2022/08/11 08:50:00;;;;;;;;;;;;;;;;;;5037399;28;19963;-73
2022/08/11 08:52:25;;;;;;;;;;;;;;;;;;5039391;28;19916;-77
2022/08/11 08:54:52;;;;;;;;;;;;;;;;;;5061499;28;19981;-74
2022/08/11 08:57:19;;;;;;;;;;;;;;;;;;5048497;28;19916;-73
2022/08/11 08:59:45;;;;;;;;;;;;;;;;;;5054977;28;20000;-73
2022/08/11 09:02:11;;;;;;;;;;;;;;;;;;5054740;28;19956;-73
2022/08/11 09:04:37;;;;;;;;;;;;;;;;;;5056276;28;19917;-73
2022/08/11 09:07:03;;;;;;;;;;;;;;;;;;5053943;28;19951;-74
2022/08/11 09:09:30;;;;;;;;;;;;;;;;;;5054566;28;19944;-78
2022/08/11 09:11:56;;;;;;;;;;;;;;;;;;5037066;28;20392;-74
2022/08/11 09:14:22;;;;;;;;;;;;;;;;;;5038897;28;19913;-73
2022/08/11 09:16:48;;;;;;;;;;;;;;;;;;5049810;28;19913;-73
2022/08/11 09:19:16;;;;;;;;;;;;;;;;;;5051266;28;19955;-73
2022/08/11 09:21:42;;;;;;;;;;;;;;;;;;5055284;28;19912;-73
2022/08/11 09:26:59;;;;;;;;;;;;;;;;;;5055924;28;23293;-73
2022/08/11 09:29:25;;;;;;;;;;;;;;;;;;5038242;28;21288;-73
2022/08/11 09:31:50;;;;;;;;;;;;;;;;;;5053976;28;19909;-73
2022/08/11 09:34:16;;;;;;;;;;;;;;;;;;5057581;28;20307;-73
2022/08/11 09:42:12;;;;;;;;;;;;;;;;;;5050504;28;19920;-73
2022/08/11 09:44:47;;;;;;;;;;;;;;;;;;5051219;28;19940;-73
2022/08/11 09:47:14;;;;;;;;;;;;;;;;;;5053991;28;19995;-73
2022/08/11 09:49:40;;;;;;;;;;;;;;;;;;5051873;28;19992;-77
2022/08/11 09:52:08;;;;;;;;;;;;;;;;;;5040813;28;19947;-74
2022/08/11 09:54:34;;;;;;;;;;;;;;;;;;5059752;28;19908;-73
2022/08/11 09:59:45;;;;;;;;;;;;;;;;;;5047469;28;19923;-73
2022/08/11 10:02:11;;;;;;;;;;;;;;;;;;5051892;28;19908;-75
2022/08/11 10:04:37;;;;;;;;;;;;;;;;;;5045278;28;19924;-74
2022/08/11 10:07:05;;;;;;;;;;;;;;;;;;5034625;28;19958;-72
2022/08/11 10:09:31;;;;;;;;;;;;;;;;;;5043561;28;19917;-72
2022/08/11 10:11:57;;;;;;;;;;;;;;;;;;5049925;28;19955;-72
2022/08/11 10:17:08;;;;;;;;;;;;;;;;;;5040246;28;19923;-71
2022/08/11 10:19:36;;;;;;;;;;;;;;;;;;5031923;28;20217;-71
2022/08/11 10:27:31;;;;;;;;;;;;;;;;;;5039529;28;19986;-73
2022/08/11 10:35:26;;;;;;;;;;;;;;;;;;5039350;28;19927;-71
2022/08/11 10:37:53;;;;;;;;;;;;;;;;;;5018597;28;19948;-72
2022/08/11 10:40:21;;;;;;;;;;;;;;;;;;5040439;28;19969;-71
2022/08/11 10:43:02;;;;;;;;;;;;;;;;;;5045685;28;19916;-71
2022/08/11 10:48:13;;;;;;;;;;;;;;;;;;5065668;28;19953;-71
2022/08/11 10:58:54;;;;;;;;;;;;;;;;;;5037731;28;19916;-72
2022/08/11 11:01:23;;;;;;;;;;;;;;;;;;5032342;28;19917;-73
2022/08/11 11:03:51;;;;;;;;;;;;;;;;;;5036939;28;19912;-75
2022/08/11 11:06:18;;;;;;;;;;;;;;;;;;5035514;28;19916;-75
2022/08/11 11:08:53;;;;;;;;;;;;;;;;;;5045994;28;19904;-77
2022/08/11 11:11:19;;;;;;;;;;;;;;;;;;5032912;28;19909;-74
2022/08/11 11:19:18;;;;;;;;;;;;;;;;;;5046706;28;20428;-74
2022/08/11 11:21:43;;;;;;;;;;;;;;;;;;5030895;28;19928;-74
2022/08/11 11:24:10;;;;;;;;;;;;;;;;;;5031826;28;19909;-74
2022/08/11 11:26:39;;;;;;;;;;;;;;;;;;5049857;28;19921;-74
2022/08/11 11:29:05;;;;;;;;;;;;;;;;;;5064878;28;20449;-74
2022/08/11 11:31:31;;;;;;;;;;;;;;;;;;5019183;28;19948;-74
2022/08/11 11:33:57;;;;;;;;;;;;;;;;;;5036151;28;20236;-74
2022/08/11 11:36:23;;;;;;;;;;;;;;;;;;5048493;28;19946;-74
2022/08/11 11:38:49;;;;;;;;;;;;;;;;;;5051717;28;19908;-74
2022/08/11 11:41:24;;;;;;;;;;;;;;;;;;5050499;28;19908;-73
2022/08/11 11:43:50;;;;;;;;;;;;;;;;;;5047059;28;19909;-73
2022/08/11 11:46:16;;;;;;;;;;;;;;;;;;5032417;28;19997;-73
2022/08/11 11:48:42;;;;;;;;;;;;;;;;;;5049328;28;20372;-73
2022/08/11 11:51:08;;;;;;;;;;;;;;;;;;5042955;28;20253;-74
2022/08/11 11:53:35;;;;;;;;;;;;;;;;;;5062806;28;19916;-73
2022/08/11 11:56:02;;;;;;;;;;;;;;;;;;5041523;28;19909;-73
2022/08/11 12:01:15;;;;;;;;;;;;;;;;;;5049967;28;20291;-76
2022/08/11 12:03:41;;;;;;;;;;;;;;;;;;5039281;28;20380;-74
2022/08/11 12:06:07;;;;;;;;;;;;;;;;;;5050559;28;19917;-74
2022/08/11 12:08:33;;;;;;;;;;;;;;;;;;5049396;28;19944;-74
2022/08/11 12:13:44;;;;;;;;;;;;;;;;;;5045701;28;19920;-73
2022/08/11 12:16:10;;;;;;;;;;;;;;;;;;5049375;28;20437;-73
2022/08/11 12:18:36;;;;;;;;;;;;;;;;;;5069687;28;19949;-73
2022/08/11 12:21:02;;;;;;;;;;;;;;;;;;5033843;28;20293;-74
2022/08/11 12:28:59;;;;;;;;;;;;;;;;;;5033032;28;19915;-73
2022/08/11 12:31:25;;;;;;;;;;;;;;;;;;5034530;28;19909;-73
2022/08/11 12:33:52;;;;;;;;;;;;;;;;;;5051356;28;20451;-74
2022/08/11 12:36:18;;;;;;;;;;;;;;;;;;5052527;28;19908;-73
2022/08/11 12:38:44;;;;;;;;;;;;;;;;;;5041850;28;19950;-75
2022/08/11 12:46:40;;;;;;;;;;;;;;;;;;5045759;28;19924;-73
2022/08/11 12:52:00;;;;;;;;;;;;;;;;;;5041543;28;20295;-72
2022/08/11 12:54:26;;;;;;;;;;;;;;;;;;5044011;28;20305;-73
2022/08/11 13:05:06;;;;;;;;;;;;;;;;;;5039121;28;20759;-72
2022/08/11 13:07:32;;;;;;;;;;;;;;;;;;5053220;28;19913;-72
2022/08/11 13:09:58;;;;;;;;;;;;;;;;;;5021453;28;19944;-71
2022/08/11 13:15:09;;;;;;;;;;;;;;;;;;5048329;28;19915;-72
2022/08/11 13:17:35;;;;;;;;;;;;;;;;;;5052063;28;19999;-72
2022/08/11 13:20:01;;;;;;;;;;;;;;;;;;5049057;28;19912;-71
2022/08/11 13:22:27;;;;;;;;;;;;;;;;;;5050279;28;20344;-71
2022/08/11 13:24:56;;;;;;;;;;;;;;;;;;5050639;28;19963;-72
2022/08/11 13:27:22;;;;;;;;;;;;;;;;;;5047622;28;20357;-72
2022/08/11 13:29:48;;;;;;;;;;;;;;;;;;5040720;28;19955;-71
2022/08/11 13:32:17;;;;;;;;;;;;;;;;;;5036519;28;19947;-74
2022/08/11 13:34:43;;;;;;;;;;;;;;;;;;5036407;28;20352;-74
2022/08/11 13:37:09;;;;;;;;;;;;;;;;;;5045362;28;19963;-73
2022/08/11 13:39:35;;;;;;;;;;;;;;;;;;5041368;28;20007;-74
2022/08/11 13:42:01;;;;;;;;;;;;;;;;;;5033697;28;20007;-74
2022/08/11 13:44:27;;;;;;;;;;;;;;;;;;5041450;28;19908;-81
2022/08/11 13:46:54;;;;;;;;;;;;;;;;;;5057033;28;19908;-75
2022/08/11 13:49:20;;;;;;;;;;;;;;;;;;5037726;28;19909;-77
2022/08/11 13:51:46;;;;;;;;;;;;;;;;;;5047566;28;19951;-74
2022/08/11 13:54:12;;;;;;;;;;;;;;;;;;5048621;28;20387;-74
2022/08/11 13:56:41;;;;;;;;;;;;;;;;;;5045580;28;19932;-74
2022/08/11 13:59:07;;;;;;;;;;;;;;;;;;5013949;28;19913;-73
2022/08/11 14:01:33;;;;;;;;;;;;;;;;;;5048384;28;20296;-75
2022/08/11 14:03:59;;;;;;;;;;;;;;;;;;5040846;28;19955;-73
2022/08/11 14:06:25;;;;;;;;;;;;;;;;;;5054939;28;19951;-74
2022/08/11 14:08:52;;;;;;;;;;;;;;;;;;5049915;28;20164;-74
2022/08/11 14:14:02;;;;;;;;;;;;;;;;;;5050555;28;19916;-73
2022/08/11 14:16:28;;;;;;;;;;;;;;;;;;5047758;28;20372;-74
2022/08/11 14:18:54;;;;;;;;;;;;;;;;;;5033538;28;20308;-74
2022/08/11 14:24:05;;;;;;;;;;;;;;;;;;5049633;28;19924;-73
2022/08/11 14:26:37;;;;;;;;;;;;;;;;;;5034749;28;19956;-73
2022/08/11 14:29:04;;;;;;;;;;;;;;;;;;5057728;28;20369;-73
2022/08/11 14:31:30;;;;;;;;;;;;;;;;;;5035442;28;19990;-73
2022/08/11 14:33:56;;;;;;;;;;;;;;;;;;5030859;28;19927;-74
2022/08/11 14:36:22;;;;;;;;;;;;;;;;;;5033987;28;20305;-76
2022/08/11 14:38:48;;;;;;;;;;;;;;;;;;5032297;28;19936;-74
2022/08/11 14:49:28;;;;;;;;;;;;;;;;;;5038480;28;19916;-73
2022/08/11 14:51:54;;;;;;;;;;;;;;;;;;5049412;28;19940;-73
2022/08/11 14:57:05;;;;;;;;;;;;;;;;;;5038047;28;20050;-73
2022/08/11 14:59:31;;;;;;;;;;;;;;;;;;5049498;28;20431;-73
2022/08/11 15:04:41;;;;;;;;;;;;;;;;;;5039846;28;20007;-73
2022/08/11 15:07:09;;;;;;;;;;;;;;;;;;5023787;28;19999;-73
2022/08/11 15:09:35;;;;;;;;;;;;;;;;;;5043744;28;19932;-73
2022/08/11 15:12:07;;;;;;;;;;;;;;;;;;5044339;28;20300;-73
2022/08/11 15:17:17;;;;;;;;;;;;;;;;;;5044742;28;19966;-74
2022/08/11 15:25:12;;;;;;;;;;;;;;;;;;5048428;28;20351;-73
2022/08/11 15:38:37;;;;;;;;;;;;;;;;;;5047257;28;19915;-74
2022/08/11 15:46:32;;;;;;;;;;;;;;;;;;5042433;28;19924;-73
2022/08/11 15:48:58;;;;;;;;;;;;;;;;;;5057621;28;19948;-74
2022/08/11 15:51:24;;;;;;;;;;;;;;;;;;5041699;28;19955;-74
2022/08/11 15:53:50;;;;;;;;;;;;;;;;;;5040324;28;19951;-74
2022/08/11 15:56:16;;;;;;;;;;;;;;;;;;5044708;28;19909;-75
2022/08/11 16:04:12;;;;;;;;;;;;;;;;;;5046656;28;19967;-76
2022/08/11 16:06:38;;;;;;;;;;;;;;;;;;5042091;28;20031;-74
2022/08/11 16:09:04;;;;;;;;;;;;;;;;;;5054027;28;19909;-73
2022/08/11 16:11:31;;;;;;;;;;;;;;;;;;5049966;28;19915;-74
2022/08/11 16:16:42;;;;;;;;;;;;;;;;;;5048215;28;20431;-74
2022/08/11 16:19:09;;;;;;;;;;;;;;;;;;5035341;28;19909;-75
2022/08/11 16:21:35;;;;;;;;;;;;;;;;;;5059012;28;20315;-74
2022/08/11 16:24:01;;;;;;;;;;;;;;;;;;5039278;28;19915;-74
2022/08/11 16:26:27;;;;;;;;;;;;;;;;;;5036979;28;19975;-72
2022/08/11 16:28:53;;;;;;;;;;;;;;;;;;5038707;28;19916;-73
2022/08/11 16:31:19;;;;;;;;;;;;;;;;;;5051239;28;19913;-73
2022/08/11 16:33:45;;;;;;;;;;;;;;;;;;5051969;28;19952;-74
2022/08/11 16:38:56;;;;;;;;;;;;;;;;;;5042041;28;20355;-74
2022/08/11 16:49:23;;;;;;;;;;;;;;;;;;5049223;28;19921;-74
2022/08/11 16:51:49;;;;;;;;;;;;;;;;;;5046924;28;19909;-74
2022/08/11 16:54:15;;;;;;;;;;;;;;;;;;5044651;28;19974;-75
2022/08/11 16:56:41;;;;;;;;;;;;;;;;;;5052303;28;19944;-75
2022/08/11 16:59:13;;;;;;;;;;;;;;;;;;5045304;28;19998;-75
2022/08/11 17:01:40;;;;;;;;;;;;;;;;;;5048493;28;19916;-73
2022/08/11 17:18:03;;;;;;;;;;;;;;;;;;5040019;28;19923;-74
2022/08/11 17:20:30;;;;;;;;;;;;;;;;;;5053277;28;19908;-73
2022/08/11 17:25:41;;;;;;;;;;;;;;;;;;5048874;28;19924;-74
2022/08/11 17:28:07;;;;;;;;;;;;;;;;;;5047559;28;19944;-73
2022/08/11 17:36:02;;;;;;;;;;;;;;;;;;5049892;28;19924;-74
2022/08/11 17:38:28;;;;;;;;;;;;;;;;;;5049448;28;19909;-74
2022/08/11 17:49:08;;;;;;;;;;;;;;;;;;5041082;28;20852;-73
2022/08/11 17:59:51;;;;;;;;;;;;;;;;;;5051037;28;19951;-73
2022/08/11 18:05:03;;;;;;;;;;;;;;;;;;5045724;28;19936;-73
